createdAt,value
2023-05-31T00:01:21.431Z,12.39
2023-05-31T00:03:48.314Z,12.57
2023-05-31T00:06:17.374Z,12.28
2023-05-31T00:08:44.108Z,12.33
2023-05-31T00:11:11.004Z,12.48
2023-05-31T00:13:40.558Z,12.37
2023-05-31T00:16:22.815Z,12.21
2023-05-31T00:18:50.096Z,12.12
2023-05-31T00:21:19.250Z,12.01
2023-05-31T00:23:46.080Z,12.32
2023-05-31T00:26:13.051Z,12.27
2023-05-31T00:28:39.903Z,12.20
2023-05-31T00:31:07.056Z,12.24
2023-05-31T00:33:33.795Z,11.95
2023-05-31T00:36:00.763Z,11.97
2023-05-31T00:38:28.857Z,12.15
2023-05-31T00:40:55.628Z,11.91
2023-05-31T00:43:22.433Z,12.09
2023-05-31T00:45:49.827Z,12.04
2023-05-31T00:48:16.956Z,11.80
2023-05-31T00:50:43.974Z,12.04
2023-05-31T00:53:10.750Z,11.96
2023-05-31T00:55:38.102Z,11.97
2023-05-31T00:58:04.771Z,11.69
2023-05-31T01:00:32.202Z,11.70
2023-05-31T01:03:10.151Z,11.67
2023-05-31T01:05:39.451Z,11.87
2023-05-31T01:08:08.716Z,11.82
2023-05-31T01:10:35.485Z,11.59
2023-05-31T01:13:14.640Z,11.82
2023-05-31T01:15:58.497Z,11.80
2023-05-31T01:18:37.069Z,11.74
2023-05-31T01:21:06.684Z,11.70
2023-05-31T01:23:52.750Z,11.71
2023-05-31T01:26:31.831Z,11.68
2023-05-31T01:29:02.330Z,11.47
2023-05-31T01:31:38.055Z,11.43
2023-05-31T01:34:06.238Z,10.87
2023-05-31T01:36:33.639Z,11.61
2023-05-31T01:39:03.280Z,11.37
2023-05-31T01:41:37.839Z,11.37
2023-05-31T01:44:07.463Z,11.49
2023-05-31T01:46:34.634Z,11.51
2023-05-31T01:49:02.404Z,11.47
2023-05-31T01:51:34.913Z,11.49
2023-05-31T01:54:01.886Z,11.29
2023-05-31T01:56:31.659Z,11.20
2023-05-31T01:59:03.804Z,11.41
2023-05-31T02:01:31.876Z,11.15
2023-05-31T02:03:59.103Z,11.21
2023-05-31T02:06:28.222Z,11.27
2023-05-31T02:08:56.235Z,11.36
2023-05-31T02:11:23.235Z,11.31
2023-05-31T02:13:49.960Z,11.05
2023-05-31T02:16:17.730Z,11.19
2023-05-31T02:18:46.091Z,11.16
2023-05-31T02:21:13.242Z,11.10
2023-05-31T02:23:39.953Z,11.02
2023-05-31T02:26:07.118Z,11.10
2023-05-31T02:28:34.174Z,11.03
2023-05-31T02:31:01.999Z,10.34
2023-05-31T02:33:29.328Z,11.00
2023-05-31T02:35:59.909Z,10.73
2023-05-31T02:38:27.963Z,11.00
2023-05-31T02:40:54.798Z,10.71
2023-05-31T02:43:21.735Z,10.89
2023-05-31T02:45:48.567Z,10.94
2023-05-31T02:48:15.357Z,10.90
2023-05-31T02:50:42.283Z,10.90
2023-05-31T02:53:09.019Z,10.48
2023-05-31T02:55:39.226Z,10.66
2023-05-31T02:58:09.499Z,10.86
2023-05-31T03:00:36.368Z,10.62
2023-05-31T03:03:03.270Z,10.64
2023-05-31T03:05:32.571Z,10.88
2023-05-31T03:07:59.374Z,10.81
2023-05-31T03:10:28.900Z,10.67
2023-05-31T03:12:56.019Z,10.86
2023-05-31T03:15:23.229Z,10.85
2023-05-31T03:17:50.264Z,10.83
2023-05-31T03:20:17.136Z,10.81
2023-05-31T03:22:44.111Z,10.53
2023-05-31T03:25:11.167Z,10.69
2023-05-31T03:27:38.577Z,10.71
2023-05-31T03:30:09.069Z,10.44
2023-05-31T03:32:37.731Z,10.73
2023-05-31T03:35:05.391Z,10.73
2023-05-31T03:37:32.347Z,10.74
2023-05-31T03:39:59.264Z,10.57
2023-05-31T03:42:26.112Z,10.76
2023-05-31T03:44:52.836Z,10.73
2023-05-31T03:47:22.281Z,10.76
2023-05-31T03:49:49.217Z,10.83
2023-05-31T03:52:16.289Z,10.60
2023-05-31T03:54:43.275Z,10.67
2023-05-31T03:57:10.011Z,10.70
2023-05-31T03:59:36.958Z,10.97
2023-05-31T04:02:04.522Z,10.99
2023-05-31T04:04:31.703Z,11.01
2023-05-31T04:06:58.582Z,10.92
2023-05-31T04:09:27.154Z,11.15
2023-05-31T04:11:55.347Z,11.36
2023-05-31T04:14:22.276Z,12.13
2023-05-31T04:16:49.059Z,12.86
2023-05-31T04:19:15.983Z,13.29
2023-05-31T04:21:42.716Z,13.11
2023-05-31T04:24:09.504Z,13.01
2023-05-31T04:26:36.672Z,12.96
2023-05-31T04:29:03.465Z,12.78
2023-05-31T04:31:43.016Z,12.60
2023-05-31T04:34:19.815Z,12.49
2023-05-31T04:36:51.026Z,12.32
2023-05-31T04:39:18.825Z,13.98
2023-05-31T04:41:45.640Z,15.28
2023-05-31T04:44:12.973Z,16.58
2023-05-31T04:46:42.488Z,17.36
2023-05-31T04:49:10.942Z,17.67
2023-05-31T04:51:37.908Z,16.82
2023-05-31T04:54:04.923Z,15.85
2023-05-31T04:56:34.465Z,16.05
2023-05-31T04:59:01.336Z,17.37
2023-05-31T05:01:29.143Z,18.38
2023-05-31T05:03:56.025Z,19.12
2023-05-31T05:06:23.549Z,19.94
2023-05-31T05:08:50.262Z,20.35
2023-05-31T05:11:17.058Z,20.46
2023-05-31T05:13:44.888Z,19.96
2023-05-31T05:16:12.458Z,20.92
2023-05-31T05:18:39.317Z,21.01
2023-05-31T05:21:06.059Z,21.77
2023-05-31T05:23:34.591Z,21.90
2023-05-31T05:26:01.911Z,21.50
2023-05-31T05:28:30.307Z,22.28
2023-05-31T05:30:57.187Z,22.77
2023-05-31T05:33:24.246Z,22.84
2023-05-31T05:35:51.316Z,22.73
2023-05-31T05:38:18.066Z,22.63
2023-05-31T05:40:47.338Z,22.81
2023-05-31T05:43:16.742Z,23.42
2023-05-31T05:45:43.977Z,23.99
2023-05-31T05:48:10.910Z,23.87
2023-05-31T05:50:37.877Z,23.50
2023-05-31T05:53:05.046Z,23.70
2023-05-31T05:55:32.212Z,24.32
2023-05-31T05:57:58.950Z,24.43
2023-05-31T06:00:25.927Z,24.34
2023-05-31T06:02:53.346Z,24.63
2023-05-31T06:05:27.059Z,25.09
2023-05-31T06:07:54.769Z,24.88
2023-05-31T06:10:24.927Z,25.08
2023-05-31T06:12:54.042Z,25.21
2023-05-31T06:15:21.238Z,25.19
2023-05-31T06:17:50.615Z,25.42
2023-05-31T06:20:18.052Z,25.53
2023-05-31T06:22:46.674Z,25.29
2023-05-31T06:25:20.779Z,25.15
2023-05-31T06:27:48.126Z,25.65
2023-05-31T06:30:15.579Z,26.02
2023-05-31T06:32:43.471Z,25.85
2023-05-31T06:35:10.428Z,26.78
2023-05-31T06:37:40.298Z,26.65
2023-05-31T06:40:09.094Z,26.77
2023-05-31T06:42:38.141Z,26.85
2023-05-31T06:45:06.208Z,26.91
2023-05-31T06:47:33.982Z,26.82
2023-05-31T06:50:01.200Z,26.89
2023-05-31T06:52:28.085Z,26.97
2023-05-31T06:54:54.837Z,27.03
2023-05-31T06:57:21.585Z,27.35
2023-05-31T06:59:51.088Z,27.45
2023-05-31T07:02:17.882Z,27.06
2023-05-31T07:04:44.647Z,27.75
2023-05-31T07:07:12.302Z,28.02
2023-05-31T07:09:39.254Z,28.22
2023-05-31T07:12:06.703Z,28.41
2023-05-31T07:14:33.498Z,28.59
2023-05-31T07:17:00.219Z,28.76
2023-05-31T07:19:29.498Z,28.57
2023-05-31T07:21:56.349Z,28.33
2023-05-31T07:24:25.451Z,28.24
2023-05-31T07:26:52.114Z,28.93
2023-05-31T07:29:18.774Z,28.78
2023-05-31T07:31:48.200Z,28.19
2023-05-31T07:34:14.888Z,28.79
2023-05-31T07:36:42.311Z,29.33
2023-05-31T07:39:11.780Z,29.04
2023-05-31T07:41:38.830Z,28.73
2023-05-31T07:44:06.588Z,28.67
2023-05-31T07:46:33.316Z,28.80
2023-05-31T07:49:00.503Z,29.13
2023-05-31T07:51:29.756Z,29.46
2023-05-31T07:53:56.644Z,29.79
2023-05-31T07:56:23.531Z,29.01
2023-05-31T07:58:50.932Z,28.91
2023-05-31T08:01:17.635Z,29.09
2023-05-31T08:03:44.717Z,28.60
2023-05-31T08:06:11.883Z,28.52
2023-05-31T08:08:38.622Z,28.32
2023-05-31T08:11:05.904Z,28.70
2023-05-31T08:13:32.829Z,29.03
2023-05-31T08:15:59.555Z,28.77
2023-05-31T08:18:28.434Z,28.85
2023-05-31T08:20:58.077Z,28.66
2023-05-31T08:23:25.088Z,28.47
2023-05-31T08:25:52.581Z,27.02
2023-05-31T08:28:19.575Z,27.77
2023-05-31T08:30:46.694Z,28.54
2023-05-31T08:33:13.576Z,27.65
2023-05-31T08:35:42.150Z,27.29
2023-05-31T08:38:12.030Z,27.96
2023-05-31T08:40:39.603Z,28.24
2023-05-31T08:43:17.497Z,28.20
2023-05-31T08:45:52.176Z,27.88
2023-05-31T08:48:25.862Z,27.77
2023-05-31T08:50:56.437Z,27.35
2023-05-31T08:53:26.693Z,27.56
2023-05-31T08:55:55.237Z,27.41
2023-05-31T08:58:23.637Z,28.04
2023-05-31T09:00:50.781Z,27.92
2023-05-31T09:03:17.699Z,27.80
2023-05-31T09:05:44.426Z,27.25
2023-05-31T09:08:12.259Z,27.00
2023-05-31T09:10:41.029Z,27.10
2023-05-31T09:13:10.979Z,27.17
2023-05-31T09:15:38.568Z,27.23
2023-05-31T09:18:20.813Z,27.32
2023-05-31T09:20:49.829Z,27.04
2023-05-31T09:23:19.051Z,26.86
2023-05-31T09:25:53.049Z,26.80
2023-05-31T09:28:23.418Z,26.35
2023-05-31T09:31:11.625Z,26.71
2023-05-31T09:33:44.149Z,26.50
2023-05-31T09:36:15.240Z,26.43
2023-05-31T09:38:42.224Z,26.30
2023-05-31T09:41:22.189Z,26.06
2023-05-31T09:43:51.535Z,25.87
2023-05-31T09:46:20.785Z,25.14
2023-05-31T09:49:05.045Z,25.70
2023-05-31T09:51:35.692Z,25.82
2023-05-31T09:54:16.057Z,25.64
2023-05-31T09:56:42.802Z,25.27
2023-05-31T09:59:11.878Z,25.03
2023-05-31T10:01:39.053Z,25.06
2023-05-31T10:04:07.403Z,24.91
2023-05-31T10:06:38.954Z,25.13
2023-05-31T10:09:07.677Z,24.96
2023-05-31T10:11:38.059Z,24.96
2023-05-31T10:14:10.531Z,25.08
2023-05-31T10:16:50.199Z,24.94
2023-05-31T10:19:41.246Z,24.95
2023-05-31T10:22:09.292Z,24.80
2023-05-31T10:24:54.105Z,24.69
2023-05-31T10:27:29.895Z,24.53
2023-05-31T10:30:06.569Z,24.89
2023-05-31T10:32:52.445Z,25.04
2023-05-31T10:35:19.355Z,25.00
2023-05-31T10:37:46.877Z,24.98
2023-05-31T10:40:39.608Z,25.39
2023-05-31T10:43:15.359Z,25.38
2023-05-31T10:45:55.519Z,25.26
2023-05-31T10:48:42.322Z,25.07
2023-05-31T10:51:11.730Z,25.10
2023-05-31T10:53:39.613Z,25.23
2023-05-31T10:56:11.867Z,25.26
2023-05-31T10:58:41.156Z,25.59
2023-05-31T11:01:14.596Z,25.48
2023-05-31T11:03:51.388Z,25.28
2023-05-31T11:06:39.344Z,25.43
2023-05-31T11:09:14.215Z,25.64
2023-05-31T11:11:42.279Z,25.82
2023-05-31T11:14:11.480Z,25.70
2023-05-31T11:16:44.635Z,25.69
2023-05-31T11:19:16.337Z,25.39
2023-05-31T11:22:01.078Z,25.51
2023-05-31T11:24:32.224Z,25.46
2023-05-31T11:27:01.462Z,25.55
2023-05-31T11:29:49.381Z,25.88
2023-05-31T11:32:18.195Z,25.84
2023-05-31T11:34:57.800Z,26.07
2023-05-31T11:37:28.919Z,26.04
2023-05-31T11:39:56.729Z,25.97
2023-05-31T11:42:27.136Z,25.99
2023-05-31T11:44:55.141Z,25.97
2023-05-31T11:47:26.324Z,25.95
2023-05-31T11:49:53.879Z,25.63
2023-05-31T11:52:27.215Z,25.62
2023-05-31T11:54:56.048Z,25.91
2023-05-31T11:57:23.504Z,26.07
2023-05-31T11:59:50.223Z,26.26
2023-05-31T12:02:18.846Z,26.44
2023-05-31T12:04:45.778Z,26.26
2023-05-31T12:07:18.142Z,26.53
2023-05-31T12:09:45.115Z,26.51
2023-05-31T12:12:13.508Z,26.27
2023-05-31T12:14:53.515Z,26.19
2023-05-31T12:17:20.400Z,26.22
2023-05-31T12:19:52.847Z,26.22
2023-05-31T12:22:19.621Z,26.41
2023-05-31T12:24:56.196Z,26.30
2023-05-31T12:29:59.239Z,26.27
2023-05-31T12:32:28.981Z,26.18
2023-05-31T12:35:11.998Z,26.27
2023-05-31T12:37:59.473Z,26.74
2023-05-31T12:40:26.278Z,26.38
2023-05-31T12:43:03.912Z,26.57
2023-05-31T12:45:30.948Z,26.56
2023-05-31T12:48:02.698Z,26.33
2023-05-31T12:50:31.066Z,26.56
2023-05-31T12:52:58.672Z,26.58
2023-05-31T12:55:25.932Z,26.40
2023-05-31T12:57:53.708Z,26.59
2023-05-31T13:00:20.972Z,26.36
2023-05-31T13:02:48.057Z,26.43
2023-05-31T13:05:14.796Z,26.32
2023-05-31T13:07:41.782Z,26.27
2023-05-31T13:10:12.695Z,26.13
2023-05-31T13:12:42.715Z,26.34
2023-05-31T13:15:10.244Z,26.38
2023-05-31T13:17:37.004Z,26.14
2023-05-31T13:20:12.532Z,26.25
2023-05-31T13:22:42.636Z,26.53
2023-05-31T13:25:10.329Z,26.52
2023-05-31T13:27:37.843Z,26.42
2023-05-31T13:30:05.415Z,26.36
2023-05-31T13:32:32.701Z,26.58
2023-05-31T13:35:01.136Z,26.50
2023-05-31T13:37:28.710Z,26.49
2023-05-31T13:39:56.972Z,26.60
2023-05-31T13:42:24.541Z,26.59
2023-05-31T13:44:51.494Z,26.27
2023-05-31T13:47:18.365Z,25.91
2023-05-31T13:49:47.606Z,26.07
2023-05-31T13:52:15.341Z,26.25
2023-05-31T13:54:42.519Z,26.26
2023-05-31T13:57:09.518Z,26.24
2023-05-31T13:59:36.682Z,26.36
2023-05-31T14:02:03.933Z,26.26
2023-05-31T14:04:30.857Z,26.01
2023-05-31T14:07:00.877Z,25.96
2023-05-31T14:09:27.791Z,26.17
2023-05-31T14:11:55.378Z,26.15
2023-05-31T14:14:22.427Z,26.20
2023-05-31T14:16:52.489Z,26.18
2023-05-31T14:19:19.844Z,26.16
2023-05-31T14:21:49.287Z,26.15
2023-05-31T14:24:19.016Z,26.17
2023-05-31T14:26:48.248Z,26.21
2023-05-31T14:29:15.014Z,26.22
2023-05-31T14:31:41.997Z,26.16
2023-05-31T14:34:08.731Z,26.21
2023-05-31T14:36:39.058Z,26.15
2023-05-31T14:39:06.651Z,26.00
2023-05-31T14:41:33.433Z,26.28
2023-05-31T14:44:00.295Z,26.40
2023-05-31T14:46:27.231Z,26.11
2023-05-31T14:48:56.738Z,26.36
2023-05-31T14:51:23.463Z,26.18
2023-05-31T14:53:52.609Z,26.36
2023-05-31T14:56:20.487Z,26.36
2023-05-31T14:58:48.412Z,26.31
2023-05-31T15:01:16.255Z,26.33
2023-05-31T15:03:43.279Z,26.08
2023-05-31T15:06:10.358Z,26.17
2023-05-31T15:08:37.712Z,26.19
2023-05-31T15:11:04.907Z,26.00
2023-05-31T15:13:31.804Z,26.11
2023-05-31T15:15:58.866Z,26.15
2023-05-31T15:18:28.348Z,26.19
2023-05-31T15:20:55.750Z,25.99
2023-05-31T15:23:23.276Z,26.11
2023-05-31T15:25:50.031Z,26.08
2023-05-31T15:28:16.837Z,26.21
2023-05-31T15:30:43.670Z,26.08
2023-05-31T15:33:10.902Z,26.15
2023-05-31T15:35:37.682Z,26.14
2023-05-31T15:38:04.534Z,26.08
2023-05-31T15:40:31.363Z,25.99
2023-05-31T15:42:58.190Z,25.87
2023-05-31T15:45:25.133Z,26.05
2023-05-31T15:47:52.142Z,26.05
2023-05-31T15:50:20.079Z,25.88
2023-05-31T15:52:47.040Z,25.91
2023-05-31T15:55:13.928Z,26.08
2023-05-31T15:57:40.751Z,25.89
2023-05-31T16:00:09.235Z,26.02
2023-05-31T16:02:36.412Z,25.89
2023-05-31T16:05:04.164Z,25.85
2023-05-31T16:07:31.111Z,25.89
2023-05-31T16:09:58.315Z,26.08
2023-05-31T16:12:25.605Z,25.94
2023-05-31T16:14:52.444Z,26.02
2023-05-31T16:17:19.450Z,26.01
2023-05-31T16:19:46.524Z,25.96
2023-05-31T16:22:13.161Z,25.94
2023-05-31T16:24:42.274Z,25.99
2023-05-31T16:27:09.166Z,25.96
2023-05-31T16:29:35.818Z,25.92
2023-05-31T16:32:02.803Z,25.98
2023-05-31T16:34:29.679Z,25.96
2023-05-31T16:36:56.531Z,25.98
2023-05-31T16:39:23.331Z,26.03
2023-05-31T16:41:50.255Z,26.04
2023-05-31T16:44:19.136Z,25.81
2023-05-31T16:46:48.210Z,25.92
2023-05-31T16:49:15.142Z,25.92
2023-05-31T16:51:43.563Z,25.90
2023-05-31T16:54:10.717Z,26.01
2023-05-31T16:56:40.260Z,26.06
2023-05-31T16:59:07.121Z,25.94
2023-05-31T17:01:34.853Z,25.79
2023-05-31T17:04:02.170Z,25.76
2023-05-31T17:06:31.345Z,25.78
2023-05-31T17:08:58.424Z,25.68
2023-05-31T17:11:27.924Z,25.81
2023-05-31T17:13:54.902Z,25.78
2023-05-31T17:16:21.842Z,25.79
2023-05-31T17:18:53.504Z,25.76
2023-05-31T17:21:20.364Z,25.70
2023-05-31T17:23:47.170Z,25.49
2023-05-31T17:26:13.983Z,25.62
2023-05-31T17:28:41.203Z,25.51
2023-05-31T17:31:07.978Z,25.32
2023-05-31T17:33:37.221Z,25.17
2023-05-31T17:36:04.302Z,25.27
2023-05-31T17:38:31.269Z,25.18
2023-05-31T17:40:57.897Z,25.32
2023-05-31T17:43:24.578Z,25.16
2023-05-31T17:45:52.365Z,25.16
2023-05-31T17:48:22.502Z,25.11
2023-05-31T17:50:51.719Z,25.23
2023-05-31T17:53:18.453Z,24.96
2023-05-31T17:55:45.374Z,25.01
2023-05-31T17:58:14.750Z,24.94
2023-05-31T18:00:41.672Z,24.99
2023-05-31T18:03:08.587Z,24.87
2023-05-31T18:05:35.549Z,24.91
2023-05-31T18:08:02.353Z,24.89
2023-05-31T18:10:29.332Z,24.95
2023-05-31T18:12:56.101Z,24.77
2023-05-31T18:15:22.895Z,24.85
2023-05-31T18:17:50.104Z,24.61
2023-05-31T18:20:16.985Z,24.69
2023-05-31T18:22:43.666Z,24.63
2023-05-31T18:25:13.356Z,24.51
2023-05-31T18:27:40.283Z,24.51
2023-05-31T18:30:08.069Z,24.49
2023-05-31T18:32:37.228Z,24.40
2023-05-31T18:35:04.723Z,24.21
2023-05-31T18:37:31.777Z,24.46
2023-05-31T18:39:58.690Z,24.45
2023-05-31T18:42:25.836Z,24.42
2023-05-31T18:44:53.788Z,24.27
2023-05-31T18:47:20.575Z,23.88
2023-05-31T18:49:47.452Z,23.71
2023-05-31T18:52:14.578Z,23.71
2023-05-31T18:54:41.292Z,23.46
2023-05-31T18:57:08.348Z,23.34
2023-05-31T18:59:35.521Z,23.40
2023-05-31T19:02:02.933Z,23.28
2023-05-31T19:04:30.414Z,22.89
2023-05-31T19:06:57.266Z,22.92
2023-05-31T19:09:24.352Z,23.19
2023-05-31T19:11:51.725Z,23.00
2023-05-31T19:14:19.289Z,22.69
2023-05-31T19:16:46.189Z,22.54
2023-05-31T19:19:14.111Z,22.68
2023-05-31T19:21:43.444Z,22.58
2023-05-31T19:24:10.418Z,22.40
2023-05-31T19:26:39.405Z,22.28
2023-05-31T19:29:07.853Z,22.19
2023-05-31T19:31:34.674Z,21.93
2023-05-31T19:34:01.633Z,21.86
2023-05-31T19:36:28.661Z,21.77
2023-05-31T19:38:55.480Z,21.84
2023-05-31T19:41:24.803Z,21.76
2023-05-31T19:43:51.699Z,21.70
2023-05-31T19:46:25.935Z,21.62
2023-05-31T19:48:54.415Z,21.52
2023-05-31T19:51:24.806Z,21.38
2023-05-31T19:53:51.803Z,21.25
2023-05-31T19:56:18.525Z,21.12
2023-05-31T19:58:45.511Z,21.00
2023-05-31T20:01:12.423Z,20.89
2023-05-31T20:03:39.981Z,20.78
2023-05-31T20:06:07.151Z,20.68
2023-05-31T20:08:34.287Z,20.59
2023-05-31T20:11:01.100Z,20.49
2023-05-31T20:13:27.943Z,20.38
2023-05-31T20:15:55.057Z,20.30
2023-05-31T20:18:23.963Z,20.22
2023-05-31T20:20:52.134Z,20.15
2023-05-31T20:23:19.475Z,19.84
2023-05-31T20:25:46.803Z,19.73
2023-05-31T20:28:13.528Z,19.83
2023-05-31T20:30:42.265Z,19.84
2023-05-31T20:33:09.089Z,19.72
2023-05-31T20:35:38.172Z,19.56
2023-05-31T20:38:04.820Z,19.43
2023-05-31T20:40:31.889Z,19.38
2023-05-31T20:43:00.836Z,19.30
2023-05-31T20:45:27.768Z,19.06
2023-05-31T20:47:56.456Z,18.94
2023-05-31T20:50:23.499Z,18.81
2023-05-31T20:52:50.657Z,18.92
2023-05-31T20:55:17.812Z,18.82
2023-05-31T20:57:45.257Z,18.77
2023-05-31T21:00:13.216Z,18.69
2023-05-31T21:02:40.156Z,18.38
2023-05-31T21:05:09.395Z,18.42
2023-05-31T21:07:36.182Z,18.28
2023-05-31T21:10:02.901Z,18.32
2023-05-31T21:12:29.766Z,17.98
2023-05-31T21:14:56.938Z,18.12
2023-05-31T21:17:24.816Z,18.07
2023-05-31T21:19:52.971Z,18.01
2023-05-31T21:22:22.404Z,17.92
2023-05-31T21:24:51.301Z,17.78
2023-05-31T21:27:19.138Z,17.52
2023-05-31T21:29:53.308Z,17.62
2023-05-31T21:32:20.691Z,17.49
2023-05-31T21:34:48.004Z,17.45
2023-05-31T21:37:16.047Z,17.39
2023-05-31T21:39:55.947Z,17.13
2023-05-31T21:42:24.051Z,16.99
2023-05-31T21:44:51.668Z,16.89
2023-05-31T21:47:19.134Z,17.07
2023-05-31T21:49:46.477Z,16.75
2023-05-31T21:52:14.941Z,16.74
2023-05-31T21:54:45.621Z,16.64
2023-05-31T21:57:14.132Z,16.56
2023-05-31T21:59:43.978Z,16.54
2023-05-31T22:02:11.569Z,16.70
2023-05-31T22:04:40.346Z,16.54
2023-05-31T22:07:07.123Z,16.35
2023-05-31T22:09:33.967Z,16.51
2023-05-31T22:12:01.059Z,16.43
2023-05-31T22:14:30.208Z,16.31
2023-05-31T22:17:00.817Z,16.23
2023-05-31T22:19:27.538Z,15.95
2023-05-31T22:21:56.130Z,15.97
2023-05-31T22:24:23.848Z,16.12
2023-05-31T22:26:50.884Z,16.08
2023-05-31T22:29:20.113Z,16.00
2023-05-31T22:31:47.180Z,15.89
2023-05-31T22:34:15.056Z,15.85
2023-05-31T22:36:46.242Z,15.63
2023-05-31T22:39:15.666Z,15.48
2023-05-31T22:41:44.934Z,15.70
2023-05-31T22:44:12.132Z,15.42
2023-05-31T22:46:39.385Z,15.60
2023-05-31T22:49:06.111Z,15.52
2023-05-31T22:51:34.092Z,15.46
2023-05-31T22:54:00.774Z,15.37
2023-05-31T22:56:29.821Z,15.07
2023-05-31T22:58:59.060Z,15.13
2023-05-31T23:01:25.905Z,14.90
2023-05-31T23:03:53.348Z,15.00
2023-05-31T23:06:21.336Z,14.94
2023-05-31T23:08:50.176Z,14.66
2023-05-31T23:11:20.288Z,14.78
2023-05-31T23:13:47.045Z,14.77
2023-05-31T23:16:13.839Z,14.69
2023-05-31T23:22:33.144Z,14.25
2023-05-31T23:25:00.582Z,14.38
2023-05-31T23:27:27.747Z,14.30
2023-05-31T23:29:54.417Z,14.31
2023-05-31T23:32:21.282Z,14.30
2023-05-31T23:34:48.343Z,14.06
2023-05-31T23:37:15.631Z,14.12
2023-05-31T23:39:45.173Z,13.87
2023-05-31T23:42:12.047Z,14.03
2023-05-31T23:44:38.943Z,13.74
2023-05-31T23:47:06.350Z,13.89
2023-05-31T23:49:33.011Z,13.83
2023-05-31T23:52:00.156Z,13.75
2023-05-31T23:54:27.399Z,13.52
2023-05-31T23:56:56.521Z,13.64
2023-05-31T23:59:23.501Z,13.35
